sensor_id;sensor_type;location;lat;lon;timestamp;P1;durP1;ratioP1;P2;durP2;ratioP2
1128;SDS011;553;51.038;7.216;2023-05-07T00:00:18;4.50;;;2.30;;
1128;SDS011;553;51.038;7.216;2023-05-07T00:02:45;5.53;;;2.80;;
1128;SDS011;553;51.038;7.216;2023-05-07T00:05:12;4.30;;;2.17;;
1128;SDS011;553;51.038;7.216;2023-05-07T00:07:41;3.10;;;2.43;;
1128;SDS011;553;51.038;7.216;2023-05-07T00:10:08;5.40;;;2.47;;
1128;SDS011;553;51.038;7.216;2023-05-07T00:12:36;5.97;;;2.47;;
1128;SDS011;553;51.038;7.216;2023-05-07T00:15:03;4.40;;;2.37;;
1128;SDS011;553;51.038;7.216;2023-05-07T00:17:31;2.70;;;2.07;;
1128;SDS011;553;51.038;7.216;2023-05-07T00:19:58;4.30;;;2.37;;
1128;SDS011;553;51.038;7.216;2023-05-07T00:22:25;7.20;;;2.87;;
1128;SDS011;553;51.038;7.216;2023-05-07T00:24:52;4.23;;;3.10;;
1128;SDS011;553;51.038;7.216;2023-05-07T00:27:19;2.77;;;2.47;;
1128;SDS011;553;51.038;7.216;2023-05-07T00:29:46;6.00;;;2.37;;
1128;SDS011;553;51.038;7.216;2023-05-07T00:32:12;5.53;;;2.60;;
1128;SDS011;553;51.038;7.216;2023-05-07T00:34:39;3.10;;;2.30;;
1128;SDS011;553;51.038;7.216;2023-05-07T00:37:06;3.30;;;2.87;;
1128;SDS011;553;51.038;7.216;2023-05-07T00:39:36;3.00;;;2.70;;
1128;SDS011;553;51.038;7.216;2023-05-07T00:42:03;4.20;;;2.67;;
1128;SDS011;553;51.038;7.216;2023-05-07T00:44:30;4.13;;;3.30;;
1128;SDS011;553;51.038;7.216;2023-05-07T00:46:57;4.50;;;2.70;;
1128;SDS011;553;51.038;7.216;2023-05-07T00:49:35;2.77;;;2.50;;
1128;SDS011;553;51.038;7.216;2023-05-07T00:52:05;2.73;;;2.50;;
1128;SDS011;553;51.038;7.216;2023-05-07T00:54:34;4.60;;;2.63;;
1128;SDS011;553;51.038;7.216;2023-05-07T00:57:02;3.97;;;2.40;;
1128;SDS011;553;51.038;7.216;2023-05-07T00:59:30;3.17;;;2.70;;
1128;SDS011;553;51.038;7.216;2023-05-07T01:01:58;5.20;;;2.83;;
1128;SDS011;553;51.038;7.216;2023-05-07T01:04:25;4.00;;;3.03;;
1128;SDS011;553;51.038;7.216;2023-05-07T01:06:54;4.20;;;3.03;;
1128;SDS011;553;51.038;7.216;2023-05-07T01:09:23;3.23;;;2.47;;
1128;SDS011;553;51.038;7.216;2023-05-07T01:11:51;4.27;;;2.70;;
1128;SDS011;553;51.038;7.216;2023-05-07T01:14:19;3.10;;;2.80;;
1128;SDS011;553;51.038;7.216;2023-05-07T01:16:47;3.20;;;2.23;;
1128;SDS011;553;51.038;7.216;2023-05-07T01:19:15;3.80;;;2.73;;
1128;SDS011;553;51.038;7.216;2023-05-07T01:21:47;7.30;;;3.17;;
1128;SDS011;553;51.038;7.216;2023-05-07T01:24:17;2.97;;;2.43;;
1128;SDS011;553;51.038;7.216;2023-05-07T01:26:44;4.27;;;2.73;;
1128;SDS011;553;51.038;7.216;2023-05-07T01:29:13;3.33;;;2.30;;
1128;SDS011;553;51.038;7.216;2023-05-07T01:31:40;4.20;;;2.40;;
1128;SDS011;553;51.038;7.216;2023-05-07T01:34:09;3.33;;;2.87;;
1128;SDS011;553;51.038;7.216;2023-05-07T01:36:38;2.47;;;2.03;;
1128;SDS011;553;51.038;7.216;2023-05-07T01:39:06;5.03;;;2.57;;
1128;SDS011;553;51.038;7.216;2023-05-07T01:41:35;3.30;;;2.30;;
1128;SDS011;553;51.038;7.216;2023-05-07T01:44:03;7.13;;;2.30;;
1128;SDS011;553;51.038;7.216;2023-05-07T01:46:31;3.10;;;2.60;;
1128;SDS011;553;51.038;7.216;2023-05-07T01:48:58;3.33;;;2.50;;
1128;SDS011;553;51.038;7.216;2023-05-07T01:51:25;2.57;;;2.20;;
1128;SDS011;553;51.038;7.216;2023-05-07T01:53:54;4.27;;;2.03;;
1128;SDS011;553;51.038;7.216;2023-05-07T01:56:21;3.20;;;2.43;;
1128;SDS011;553;51.038;7.216;2023-05-07T01:58:48;2.30;;;2.10;;
1128;SDS011;553;51.038;7.216;2023-05-07T02:01:17;3.93;;;2.13;;
1128;SDS011;553;51.038;7.216;2023-05-07T02:03:44;3.10;;;2.40;;
1128;SDS011;553;51.038;7.216;2023-05-07T02:06:19;3.30;;;2.50;;
1128;SDS011;553;51.038;7.216;2023-05-07T02:08:46;3.80;;;1.90;;
1128;SDS011;553;51.038;7.216;2023-05-07T02:11:14;2.40;;;2.10;;
1128;SDS011;553;51.038;7.216;2023-05-07T02:13:41;3.63;;;2.20;;
1128;SDS011;553;51.038;7.216;2023-05-07T02:16:08;3.70;;;2.30;;
1128;SDS011;553;51.038;7.216;2023-05-07T02:18:34;2.50;;;2.30;;
1128;SDS011;553;51.038;7.216;2023-05-07T02:21:02;5.17;;;2.60;;
1128;SDS011;553;51.038;7.216;2023-05-07T02:23:29;7.70;;;2.60;;
1128;SDS011;553;51.038;7.216;2023-05-07T02:25:56;2.70;;;2.50;;
1128;SDS011;553;51.038;7.216;2023-05-07T02:28:22;2.70;;;2.20;;
1128;SDS011;553;51.038;7.216;2023-05-07T02:30:57;3.20;;;2.20;;
1128;SDS011;553;51.038;7.216;2023-05-07T02:33:28;3.10;;;2.23;;
1128;SDS011;553;51.038;7.216;2023-05-07T02:35:55;3.07;;;2.23;;
1128;SDS011;553;51.038;7.216;2023-05-07T02:38:22;2.60;;;1.90;;
1128;SDS011;553;51.038;7.216;2023-05-07T02:40:49;5.57;;;2.80;;
1128;SDS011;553;51.038;7.216;2023-05-07T02:43:16;4.00;;;2.17;;
1128;SDS011;553;51.038;7.216;2023-05-07T02:45:45;4.17;;;2.07;;
1128;SDS011;553;51.038;7.216;2023-05-07T02:48:13;3.47;;;1.93;;
1128;SDS011;553;51.038;7.216;2023-05-07T02:50:40;2.33;;;2.13;;
1128;SDS011;553;51.038;7.216;2023-05-07T02:53:07;4.90;;;2.43;;
1128;SDS011;553;51.038;7.216;2023-05-07T02:55:33;2.30;;;2.10;;
1128;SDS011;553;51.038;7.216;2023-05-07T02:58:00;2.20;;;2.03;;
1128;SDS011;553;51.038;7.216;2023-05-07T03:00:30;2.93;;;2.17;;
1128;SDS011;553;51.038;7.216;2023-05-07T03:03:08;4.20;;;2.73;;
1128;SDS011;553;51.038;7.216;2023-05-07T03:05:35;2.30;;;1.80;;
1128;SDS011;553;51.038;7.216;2023-05-07T03:08:01;4.20;;;2.47;;
1128;SDS011;553;51.038;7.216;2023-05-07T03:10:30;2.77;;;2.37;;
1128;SDS011;553;51.038;7.216;2023-05-07T03:12:56;2.50;;;2.03;;
1128;SDS011;553;51.038;7.216;2023-05-07T03:15:23;3.00;;;1.80;;
1128;SDS011;553;51.038;7.216;2023-05-07T03:17:51;2.27;;;1.93;;
1128;SDS011;553;51.038;7.216;2023-05-07T03:20:18;4.03;;;2.50;;
1128;SDS011;553;51.038;7.216;2023-05-07T03:22:45;4.17;;;1.80;;
1128;SDS011;553;51.038;7.216;2023-05-07T03:25:12;2.90;;;2.40;;
1128;SDS011;553;51.038;7.216;2023-05-07T03:27:40;4.63;;;2.20;;
1128;SDS011;553;51.038;7.216;2023-05-07T03:30:08;4.37;;;2.43;;
1128;SDS011;553;51.038;7.216;2023-05-07T03:32:36;5.17;;;2.30;;
1128;SDS011;553;51.038;7.216;2023-05-07T03:35:06;2.77;;;2.37;;
1128;SDS011;553;51.038;7.216;2023-05-07T03:37:33;6.97;;;2.80;;
1128;SDS011;553;51.038;7.216;2023-05-07T03:40:00;3.23;;;2.20;;
1128;SDS011;553;51.038;7.216;2023-05-07T03:42:30;6.43;;;2.10;;
1128;SDS011;553;51.038;7.216;2023-05-07T03:44:58;3.17;;;2.30;;
1128;SDS011;553;51.038;7.216;2023-05-07T03:47:25;3.80;;;2.10;;
1128;SDS011;553;51.038;7.216;2023-05-07T03:49:52;6.37;;;2.60;;
1128;SDS011;553;51.038;7.216;2023-05-07T03:52:22;4.60;;;2.60;;
1128;SDS011;553;51.038;7.216;2023-05-07T03:54:54;2.57;;;2.20;;
1128;SDS011;553;51.038;7.216;2023-05-07T03:57:21;3.10;;;2.33;;
1128;SDS011;553;51.038;7.216;2023-05-07T03:59:47;2.90;;;2.30;;
1128;SDS011;553;51.038;7.216;2023-05-07T04:02:14;4.20;;;2.30;;
1128;SDS011;553;51.038;7.216;2023-05-07T04:04:41;7.30;;;2.23;;
1128;SDS011;553;51.038;7.216;2023-05-07T04:07:08;3.60;;;2.50;;
1128;SDS011;553;51.038;7.216;2023-05-07T04:09:39;4.00;;;2.30;;
1128;SDS011;553;51.038;7.216;2023-05-07T04:12:06;4.53;;;2.33;;
1128;SDS011;553;51.038;7.216;2023-05-07T04:14:33;3.23;;;2.30;;
1128;SDS011;553;51.038;7.216;2023-05-07T04:17:01;2.80;;;2.33;;
1128;SDS011;553;51.038;7.216;2023-05-07T04:19:29;2.23;;;2.00;;
1128;SDS011;553;51.038;7.216;2023-05-07T04:21:56;3.80;;;2.40;;
1128;SDS011;553;51.038;7.216;2023-05-07T04:24:23;2.37;;;2.10;;
1128;SDS011;553;51.038;7.216;2023-05-07T04:26:49;6.17;;;2.70;;
1128;SDS011;553;51.038;7.216;2023-05-07T04:29:19;3.30;;;2.47;;
1128;SDS011;553;51.038;7.216;2023-05-07T04:31:45;4.00;;;2.40;;
1128;SDS011;553;51.038;7.216;2023-05-07T04:34:13;5.47;;;2.63;;
1128;SDS011;553;51.038;7.216;2023-05-07T04:36:41;5.30;;;2.00;;
1128;SDS011;553;51.038;7.216;2023-05-07T04:39:10;3.70;;;2.43;;
1128;SDS011;553;51.038;7.216;2023-05-07T04:41:39;3.87;;;2.57;;
1128;SDS011;553;51.038;7.216;2023-05-07T04:44:07;3.43;;;2.60;;
1128;SDS011;553;51.038;7.216;2023-05-07T04:46:35;3.60;;;2.30;;
1128;SDS011;553;51.038;7.216;2023-05-07T04:49:02;3.33;;;2.67;;
1128;SDS011;553;51.038;7.216;2023-05-07T04:51:29;2.83;;;2.07;;
1128;SDS011;553;51.038;7.216;2023-05-07T04:53:56;5.00;;;2.53;;
1128;SDS011;553;51.038;7.216;2023-05-07T04:56:23;3.77;;;2.20;;
1128;SDS011;553;51.038;7.216;2023-05-07T04:58:53;2.97;;;2.60;;
1128;SDS011;553;51.038;7.216;2023-05-07T05:01:20;3.20;;;2.00;;
1128;SDS011;553;51.038;7.216;2023-05-07T05:03:47;3.50;;;2.10;;
1128;SDS011;553;51.038;7.216;2023-05-07T05:06:14;3.30;;;1.80;;
1128;SDS011;553;51.038;7.216;2023-05-07T05:08:41;3.63;;;2.07;;
1128;SDS011;553;51.038;7.216;2023-05-07T05:11:09;2.97;;;2.30;;
1128;SDS011;553;51.038;7.216;2023-05-07T05:13:36;3.90;;;2.27;;
1128;SDS011;553;51.038;7.216;2023-05-07T05:16:10;3.40;;;2.03;;
1128;SDS011;553;51.038;7.216;2023-05-07T05:18:37;2.67;;;1.90;;
1128;SDS011;553;51.038;7.216;2023-05-07T05:21:04;3.27;;;2.07;;
1128;SDS011;553;51.038;7.216;2023-05-07T05:23:32;2.70;;;1.80;;
1128;SDS011;553;51.038;7.216;2023-05-07T05:25:59;5.90;;;3.40;;
1128;SDS011;553;51.038;7.216;2023-05-07T05:28:30;2.40;;;2.20;;
1128;SDS011;553;51.038;7.216;2023-05-07T05:30:56;2.57;;;1.97;;
1128;SDS011;553;51.038;7.216;2023-05-07T05:33:25;2.37;;;2.10;;
1128;SDS011;553;51.038;7.216;2023-05-07T05:35:54;3.17;;;2.20;;
1128;SDS011;553;51.038;7.216;2023-05-07T05:38:20;3.90;;;2.10;;
1128;SDS011;553;51.038;7.216;2023-05-07T05:40:48;3.00;;;2.20;;
1128;SDS011;553;51.038;7.216;2023-05-07T05:43:15;4.90;;;2.30;;
1128;SDS011;553;51.038;7.216;2023-05-07T05:45:42;4.03;;;2.30;;
1128;SDS011;553;51.038;7.216;2023-05-07T05:48:09;2.23;;;1.90;;
1128;SDS011;553;51.038;7.216;2023-05-07T05:50:36;2.00;;;1.80;;
1128;SDS011;553;51.038;7.216;2023-05-07T05:53:04;2.90;;;1.90;;
1128;SDS011;553;51.038;7.216;2023-05-07T05:55:32;2.97;;;1.77;;
1128;SDS011;553;51.038;7.216;2023-05-07T05:57:59;4.63;;;2.20;;
1128;SDS011;553;51.038;7.216;2023-05-07T06:00:28;3.30;;;1.77;;
1128;SDS011;553;51.038;7.216;2023-05-07T06:03:01;2.83;;;1.83;;
1128;SDS011;553;51.038;7.216;2023-05-07T06:05:27;4.03;;;2.03;;
1128;SDS011;553;51.038;7.216;2023-05-07T06:07:55;3.27;;;1.60;;
1128;SDS011;553;51.038;7.216;2023-05-07T06:10:22;2.50;;;1.93;;
1128;SDS011;553;51.038;7.216;2023-05-07T06:12:50;3.93;;;2.50;;
1128;SDS011;553;51.038;7.216;2023-05-07T06:15:17;3.83;;;2.10;;
1128;SDS011;553;51.038;7.216;2023-05-07T06:17:44;5.03;;;2.47;;
1128;SDS011;553;51.038;7.216;2023-05-07T06:20:11;2.30;;;2.10;;
1128;SDS011;553;51.038;7.216;2023-05-07T06:22:39;4.20;;;2.30;;
1128;SDS011;553;51.038;7.216;2023-05-07T06:25:07;2.80;;;2.50;;
1128;SDS011;553;51.038;7.216;2023-05-07T06:27:35;3.97;;;2.03;;
1128;SDS011;553;51.038;7.216;2023-05-07T06:30:01;3.67;;;2.37;;
1128;SDS011;553;51.038;7.216;2023-05-07T06:32:28;2.40;;;1.97;;
1128;SDS011;553;51.038;7.216;2023-05-07T06:34:55;2.93;;;2.10;;
1128;SDS011;553;51.038;7.216;2023-05-07T06:37:22;2.80;;;2.10;;
1128;SDS011;553;51.038;7.216;2023-05-07T06:39:53;2.47;;;1.57;;
1128;SDS011;553;51.038;7.216;2023-05-07T06:42:21;3.27;;;1.90;;
1128;SDS011;553;51.038;7.216;2023-05-07T06:44:49;2.40;;;1.80;;
1128;SDS011;553;51.038;7.216;2023-05-07T06:47:17;2.67;;;2.20;;
1128;SDS011;553;51.038;7.216;2023-05-07T06:49:48;3.33;;;2.10;;
1128;SDS011;553;51.038;7.216;2023-05-07T06:52:17;4.53;;;2.50;;
1128;SDS011;553;51.038;7.216;2023-05-07T06:54:45;2.27;;;1.73;;
1128;SDS011;553;51.038;7.216;2023-05-07T06:57:14;2.03;;;1.90;;
1128;SDS011;553;51.038;7.216;2023-05-07T06:59:41;2.87;;;1.63;;
1128;SDS011;553;51.038;7.216;2023-05-07T07:02:09;2.30;;;2.07;;
1128;SDS011;553;51.038;7.216;2023-05-07T07:04:35;1.73;;;1.60;;
1128;SDS011;553;51.038;7.216;2023-05-07T07:07:07;2.87;;;2.10;;
1128;SDS011;553;51.038;7.216;2023-05-07T07:09:34;2.40;;;1.90;;
1128;SDS011;553;51.038;7.216;2023-05-07T07:12:03;3.70;;;2.00;;
1128;SDS011;553;51.038;7.216;2023-05-07T07:14:30;3.60;;;1.67;;
1128;SDS011;553;51.038;7.216;2023-05-07T07:16:57;5.50;;;1.97;;
1128;SDS011;553;51.038;7.216;2023-05-07T07:19:25;2.97;;;2.03;;
1128;SDS011;553;51.038;7.216;2023-05-07T07:21:54;3.30;;;2.20;;
1128;SDS011;553;51.038;7.216;2023-05-07T07:24:20;2.70;;;2.13;;
1128;SDS011;553;51.038;7.216;2023-05-07T07:26:52;4.13;;;1.80;;
1128;SDS011;553;51.038;7.216;2023-05-07T07:29:20;1.97;;;1.73;;
1128;SDS011;553;51.038;7.216;2023-05-07T07:31:48;5.40;;;2.33;;
1128;SDS011;553;51.038;7.216;2023-05-07T07:34:17;3.70;;;2.77;;
1128;SDS011;553;51.038;7.216;2023-05-07T07:36:44;2.50;;;1.63;;
1128;SDS011;553;51.038;7.216;2023-05-07T07:39:15;4.20;;;2.00;;
1128;SDS011;553;51.038;7.216;2023-05-07T07:41:43;2.53;;;2.00;;
1128;SDS011;553;51.038;7.216;2023-05-07T07:44:11;3.93;;;1.83;;
1128;SDS011;553;51.038;7.216;2023-05-07T07:46:44;3.90;;;1.97;;
1128;SDS011;553;51.038;7.216;2023-05-07T07:49:11;2.23;;;1.90;;
1128;SDS011;553;51.038;7.216;2023-05-07T07:51:38;2.57;;;1.87;;
1128;SDS011;553;51.038;7.216;2023-05-07T07:54:05;2.07;;;1.47;;
1128;SDS011;553;51.038;7.216;2023-05-07T07:56:33;2.40;;;1.60;;
1128;SDS011;553;51.038;7.216;2023-05-07T07:59:02;3.50;;;1.87;;
1128;SDS011;553;51.038;7.216;2023-05-07T08:01:30;3.50;;;2.00;;
1128;SDS011;553;51.038;7.216;2023-05-07T08:03:58;1.63;;;1.53;;
1128;SDS011;553;51.038;7.216;2023-05-07T08:06:26;5.60;;;1.83;;
1128;SDS011;553;51.038;7.216;2023-05-07T08:08:54;3.37;;;1.70;;
1128;SDS011;553;51.038;7.216;2023-05-07T08:11:21;5.30;;;1.30;;
1128;SDS011;553;51.038;7.216;2023-05-07T08:13:49;3.10;;;1.77;;
1128;SDS011;553;51.038;7.216;2023-05-07T08:16:16;1.73;;;1.63;;
1128;SDS011;553;51.038;7.216;2023-05-07T08:18:43;1.60;;;1.30;;
1128;SDS011;553;51.038;7.216;2023-05-07T08:21:10;2.37;;;1.63;;
1128;SDS011;553;51.038;7.216;2023-05-07T08:23:38;2.20;;;1.70;;
1128;SDS011;553;51.038;7.216;2023-05-07T08:26:07;1.47;;;1.37;;
1128;SDS011;553;51.038;7.216;2023-05-07T08:28:35;2.70;;;1.60;;
1128;SDS011;553;51.038;7.216;2023-05-07T08:31:02;3.37;;;1.70;;
1128;SDS011;553;51.038;7.216;2023-05-07T08:33:33;3.60;;;1.57;;
1128;SDS011;553;51.038;7.216;2023-05-07T08:36:00;4.60;;;1.90;;
1128;SDS011;553;51.038;7.216;2023-05-07T08:38:27;4.03;;;1.80;;
1128;SDS011;553;51.038;7.216;2023-05-07T08:40:54;2.63;;;1.57;;
1128;SDS011;553;51.038;7.216;2023-05-07T08:43:21;3.20;;;1.70;;
1128;SDS011;553;51.038;7.216;2023-05-07T08:45:50;6.00;;;1.87;;
1128;SDS011;553;51.038;7.216;2023-05-07T08:48:24;2.47;;;1.57;;
1128;SDS011;553;51.038;7.216;2023-05-07T08:51:03;2.80;;;1.37;;
1128;SDS011;553;51.038;7.216;2023-05-07T08:53:30;4.60;;;1.97;;
1128;SDS011;553;51.038;7.216;2023-05-07T08:55:58;3.70;;;2.00;;
1128;SDS011;553;51.038;7.216;2023-05-07T08:58:27;2.90;;;2.03;;
1128;SDS011;553;51.038;7.216;2023-05-07T09:00:54;3.90;;;1.80;;
1128;SDS011;553;51.038;7.216;2023-05-07T09:03:22;4.53;;;1.23;;
1128;SDS011;553;51.038;7.216;2023-05-07T09:05:52;4.70;;;1.80;;
1128;SDS011;553;51.038;7.216;2023-05-07T09:08:23;3.07;;;1.60;;
1128;SDS011;553;51.038;7.216;2023-05-07T09:10:56;3.07;;;2.07;;
1128;SDS011;553;51.038;7.216;2023-05-07T09:13:23;3.60;;;1.80;;
1128;SDS011;553;51.038;7.216;2023-05-07T09:15:50;2.03;;;1.67;;
1128;SDS011;553;51.038;7.216;2023-05-07T09:18:18;3.57;;;1.70;;
1128;SDS011;553;51.038;7.216;2023-05-07T09:20:47;2.23;;;1.53;;
1128;SDS011;553;51.038;7.216;2023-05-07T09:23:16;2.93;;;1.53;;
1128;SDS011;553;51.038;7.216;2023-05-07T09:25:43;3.03;;;1.73;;
1128;SDS011;553;51.038;7.216;2023-05-07T09:28:22;2.77;;;1.80;;
1128;SDS011;553;51.038;7.216;2023-05-07T09:30:49;2.40;;;1.50;;
1128;SDS011;553;51.038;7.216;2023-05-07T09:33:16;2.37;;;1.70;;
1128;SDS011;553;51.038;7.216;2023-05-07T09:35:50;2.27;;;1.53;;
1128;SDS011;553;51.038;7.216;2023-05-07T09:38:19;1.90;;;1.47;;
1128;SDS011;553;51.038;7.216;2023-05-07T09:41:03;1.60;;;1.20;;
1128;SDS011;553;51.038;7.216;2023-05-07T09:43:36;3.70;;;1.30;;
1128;SDS011;553;51.038;7.216;2023-05-07T09:46:07;3.80;;;1.57;;
1128;SDS011;553;51.038;7.216;2023-05-07T09:48:40;2.67;;;1.67;;
1128;SDS011;553;51.038;7.216;2023-05-07T09:51:11;3.83;;;1.70;;
1128;SDS011;553;51.038;7.216;2023-05-07T09:53:53;1.97;;;1.57;;
1128;SDS011;553;51.038;7.216;2023-05-07T09:56:23;3.63;;;1.67;;
1128;SDS011;553;51.038;7.216;2023-05-07T09:58:52;1.93;;;1.47;;
1128;SDS011;553;51.038;7.216;2023-05-07T10:01:21;2.53;;;1.87;;
1128;SDS011;553;51.038;7.216;2023-05-07T10:03:49;2.10;;;1.50;;
1128;SDS011;553;51.038;7.216;2023-05-07T10:06:18;2.30;;;1.67;;
1128;SDS011;553;51.038;7.216;2023-05-07T10:08:46;1.90;;;1.70;;
1128;SDS011;553;51.038;7.216;2023-05-07T10:11:13;3.10;;;1.30;;
1128;SDS011;553;51.038;7.216;2023-05-07T10:13:42;3.00;;;1.70;;
1128;SDS011;553;51.038;7.216;2023-05-07T10:16:09;2.50;;;1.27;;
1128;SDS011;553;51.038;7.216;2023-05-07T10:18:44;2.10;;;1.87;;
1128;SDS011;553;51.038;7.216;2023-05-07T10:21:17;3.17;;;1.80;;
1128;SDS011;553;51.038;7.216;2023-05-07T10:23:53;2.50;;;1.90;;
1128;SDS011;553;51.038;7.216;2023-05-07T10:26:28;3.17;;;1.67;;
1128;SDS011;553;51.038;7.216;2023-05-07T10:29:04;2.80;;;1.60;;
1128;SDS011;553;51.038;7.216;2023-05-07T10:31:55;2.10;;;1.70;;
1128;SDS011;553;51.038;7.216;2023-05-07T10:34:42;3.00;;;1.77;;
1128;SDS011;553;51.038;7.216;2023-05-07T10:37:11;2.70;;;1.77;;
1128;SDS011;553;51.038;7.216;2023-05-07T10:39:40;2.47;;;1.63;;
1128;SDS011;553;51.038;7.216;2023-05-07T10:42:11;2.30;;;1.53;;
1128;SDS011;553;51.038;7.216;2023-05-07T10:44:44;2.40;;;1.53;;
1128;SDS011;553;51.038;7.216;2023-05-07T10:47:19;2.70;;;2.00;;
1128;SDS011;553;51.038;7.216;2023-05-07T10:52:24;4.53;;;1.80;;
1128;SDS011;553;51.038;7.216;2023-05-07T10:55:20;1.53;;;1.37;;
1128;SDS011;553;51.038;7.216;2023-05-07T10:57:56;4.67;;;1.80;;
1128;SDS011;553;51.038;7.216;2023-05-07T11:03:06;2.70;;;1.73;;
1128;SDS011;553;51.038;7.216;2023-05-07T11:06:08;3.83;;;1.57;;
1128;SDS011;553;51.038;7.216;2023-05-07T11:09:09;3.40;;;1.90;;
1128;SDS011;553;51.038;7.216;2023-05-07T11:11:51;2.73;;;1.60;;
1128;SDS011;553;51.038;7.216;2023-05-07T11:14:42;3.30;;;1.60;;
1128;SDS011;553;51.038;7.216;2023-05-07T11:17:14;1.73;;;1.43;;
1128;SDS011;553;51.038;7.216;2023-05-07T11:19:47;2.13;;;1.63;;
1128;SDS011;553;51.038;7.216;2023-05-07T11:22:37;2.03;;;1.50;;
1128;SDS011;553;51.038;7.216;2023-05-07T11:25:25;2.70;;;1.90;;
1128;SDS011;553;51.038;7.216;2023-05-07T11:28:04;2.30;;;1.50;;
1128;SDS011;553;51.038;7.216;2023-05-07T11:30:42;1.80;;;1.63;;
1128;SDS011;553;51.038;7.216;2023-05-07T11:33:13;1.70;;;1.53;;
1128;SDS011;553;51.038;7.216;2023-05-07T11:35:45;1.80;;;1.57;;
1128;SDS011;553;51.038;7.216;2023-05-07T11:38:15;2.10;;;1.50;;
1128;SDS011;553;51.038;7.216;2023-05-07T11:40:57;3.10;;;1.87;;
1128;SDS011;553;51.038;7.216;2023-05-07T11:43:26;3.23;;;1.70;;
1128;SDS011;553;51.038;7.216;2023-05-07T11:45:53;2.20;;;1.80;;
1128;SDS011;553;51.038;7.216;2023-05-07T11:48:20;5.60;;;1.53;;
1128;SDS011;553;51.038;7.216;2023-05-07T11:50:52;2.57;;;1.70;;
1128;SDS011;553;51.038;7.216;2023-05-07T11:53:20;2.47;;;2.27;;
1128;SDS011;553;51.038;7.216;2023-05-07T11:55:56;2.50;;;1.90;;
1128;SDS011;553;51.038;7.216;2023-05-07T11:58:24;2.93;;;2.00;;
1128;SDS011;553;51.038;7.216;2023-05-07T12:00:54;4.47;;;1.90;;
1128;SDS011;553;51.038;7.216;2023-05-07T12:03:21;2.03;;;1.83;;
1128;SDS011;553;51.038;7.216;2023-05-07T12:05:48;3.67;;;1.80;;
1128;SDS011;553;51.038;7.216;2023-05-07T12:08:18;3.50;;;1.90;;
1128;SDS011;553;51.038;7.216;2023-05-07T12:10:47;2.50;;;1.73;;
1128;SDS011;553;51.038;7.216;2023-05-07T12:13:18;1.87;;;1.77;;
1128;SDS011;553;51.038;7.216;2023-05-07T12:15:53;2.30;;;2.10;;
1128;SDS011;553;51.038;7.216;2023-05-07T12:18:21;2.13;;;1.93;;
1128;SDS011;553;51.038;7.216;2023-05-07T12:20:49;2.37;;;1.90;;
1128;SDS011;553;51.038;7.216;2023-05-07T12:23:17;3.80;;;1.87;;
1128;SDS011;553;51.038;7.216;2023-05-07T12:25:44;1.67;;;1.57;;
1128;SDS011;553;51.038;7.216;2023-05-07T12:28:14;1.90;;;1.70;;
1128;SDS011;553;51.038;7.216;2023-05-07T12:30:46;2.23;;;1.60;;
1128;SDS011;553;51.038;7.216;2023-05-07T12:33:17;3.93;;;1.97;;
1128;SDS011;553;51.038;7.216;2023-05-07T12:35:49;2.03;;;1.83;;
1128;SDS011;553;51.038;7.216;2023-05-07T12:38:17;5.53;;;1.90;;
1128;SDS011;553;51.038;7.216;2023-05-07T12:40:45;2.40;;;1.30;;
1128;SDS011;553;51.038;7.216;2023-05-07T12:43:29;4.70;;;2.00;;
1128;SDS011;553;51.038;7.216;2023-05-07T12:45:56;3.53;;;1.97;;
1128;SDS011;553;51.038;7.216;2023-05-07T12:48:25;2.63;;;2.03;;
1128;SDS011;553;51.038;7.216;2023-05-07T12:50:56;3.07;;;1.50;;
1128;SDS011;553;51.038;7.216;2023-05-07T12:53:24;1.77;;;1.67;;
1128;SDS011;553;51.038;7.216;2023-05-07T12:55:53;1.97;;;1.83;;
1128;SDS011;553;51.038;7.216;2023-05-07T12:58:31;2.00;;;1.60;;
1128;SDS011;553;51.038;7.216;2023-05-07T13:01:01;2.43;;;1.80;;
1128;SDS011;553;51.038;7.216;2023-05-07T13:03:32;3.53;;;1.77;;
1128;SDS011;553;51.038;7.216;2023-05-07T13:06:01;2.83;;;1.80;;
1128;SDS011;553;51.038;7.216;2023-05-07T13:08:31;3.40;;;1.60;;
1128;SDS011;553;51.038;7.216;2023-05-07T13:11:09;4.90;;;2.07;;
1128;SDS011;553;51.038;7.216;2023-05-07T13:13:37;1.80;;;1.70;;
1128;SDS011;553;51.038;7.216;2023-05-07T13:16:07;2.73;;;1.83;;
1128;SDS011;553;51.038;7.216;2023-05-07T13:18:35;2.33;;;1.93;;
1128;SDS011;553;51.038;7.216;2023-05-07T13:21:04;3.87;;;2.00;;
1128;SDS011;553;51.038;7.216;2023-05-07T13:23:31;3.23;;;1.70;;
1128;SDS011;553;51.038;7.216;2023-05-07T13:25:57;1.73;;;1.50;;
1128;SDS011;553;51.038;7.216;2023-05-07T13:28:26;1.70;;;1.50;;
1128;SDS011;553;51.038;7.216;2023-05-07T13:30:53;1.93;;;1.50;;
1128;SDS011;553;51.038;7.216;2023-05-07T13:33:20;2.83;;;2.30;;
1128;SDS011;553;51.038;7.216;2023-05-07T13:35:47;2.57;;;1.80;;
1128;SDS011;553;51.038;7.216;2023-05-07T13:38:14;1.90;;;1.70;;
1128;SDS011;553;51.038;7.216;2023-05-07T13:40:42;2.90;;;1.90;;
1128;SDS011;553;51.038;7.216;2023-05-07T13:43:08;3.03;;;1.70;;
1128;SDS011;553;51.038;7.216;2023-05-07T13:45:36;3.20;;;2.27;;
1128;SDS011;553;51.038;7.216;2023-05-07T13:48:03;3.93;;;1.80;;
1128;SDS011;553;51.038;7.216;2023-05-07T13:50:30;1.87;;;1.50;;
1128;SDS011;553;51.038;7.216;2023-05-07T13:52:57;2.10;;;1.80;;
1128;SDS011;553;51.038;7.216;2023-05-07T13:55:24;2.17;;;1.97;;
1128;SDS011;553;51.038;7.216;2023-05-07T13:57:54;2.73;;;1.70;;
1128;SDS011;553;51.038;7.216;2023-05-07T14:00:25;2.80;;;1.93;;
1128;SDS011;553;51.038;7.216;2023-05-07T14:02:53;2.10;;;1.90;;
1128;SDS011;553;51.038;7.216;2023-05-07T14:05:21;2.40;;;1.83;;
1128;SDS011;553;51.038;7.216;2023-05-07T14:07:52;2.90;;;2.00;;
1128;SDS011;553;51.038;7.216;2023-05-07T14:10:20;3.40;;;2.00;;
1128;SDS011;553;51.038;7.216;2023-05-07T14:12:46;2.57;;;2.33;;
1128;SDS011;553;51.038;7.216;2023-05-07T14:15:14;1.90;;;1.80;;
1128;SDS011;553;51.038;7.216;2023-05-07T14:17:42;2.97;;;2.10;;
1128;SDS011;553;51.038;7.216;2023-05-07T14:20:09;3.13;;;2.27;;
1128;SDS011;553;51.038;7.216;2023-05-07T14:22:37;2.57;;;1.63;;
1128;SDS011;553;51.038;7.216;2023-05-07T14:25:04;2.10;;;1.77;;
1128;SDS011;553;51.038;7.216;2023-05-07T14:27:32;3.37;;;1.90;;
1128;SDS011;553;51.038;7.216;2023-05-07T14:29:59;1.83;;;1.73;;
1128;SDS011;553;51.038;7.216;2023-05-07T14:32:26;3.00;;;1.80;;
1128;SDS011;553;51.038;7.216;2023-05-07T14:34:53;4.33;;;1.90;;
1128;SDS011;553;51.038;7.216;2023-05-07T14:37:19;2.43;;;1.90;;
1128;SDS011;553;51.038;7.216;2023-05-07T14:39:46;3.60;;;2.03;;
1128;SDS011;553;51.038;7.216;2023-05-07T14:42:16;2.63;;;2.40;;
1128;SDS011;553;51.038;7.216;2023-05-07T14:44:44;3.70;;;2.70;;
1128;SDS011;553;51.038;7.216;2023-05-07T14:47:12;3.10;;;2.20;;
1128;SDS011;553;51.038;7.216;2023-05-07T14:49:39;4.13;;;2.77;;
1128;SDS011;553;51.038;7.216;2023-05-07T14:52:07;2.53;;;2.33;;
1128;SDS011;553;51.038;7.216;2023-05-07T14:54:36;3.50;;;2.93;;
1128;SDS011;553;51.038;7.216;2023-05-07T14:57:04;3.63;;;2.17;;
1128;SDS011;553;51.038;7.216;2023-05-07T14:59:32;3.20;;;2.63;;
1128;SDS011;553;51.038;7.216;2023-05-07T15:01:58;2.83;;;2.40;;
1128;SDS011;553;51.038;7.216;2023-05-07T15:04:27;3.50;;;2.53;;
1128;SDS011;553;51.038;7.216;2023-05-07T15:06:54;4.33;;;2.60;;
1128;SDS011;553;51.038;7.216;2023-05-07T15:09:22;9.43;;;4.97;;
1128;SDS011;553;51.038;7.216;2023-05-07T15:11:48;14.67;;;6.33;;
1128;SDS011;553;51.038;7.216;2023-05-07T15:14:15;5.80;;;3.83;;
1128;SDS011;553;51.038;7.216;2023-05-07T15:16:42;7.37;;;4.60;;
1128;SDS011;553;51.038;7.216;2023-05-07T15:19:09;7.53;;;4.20;;
1128;SDS011;553;51.038;7.216;2023-05-07T15:21:35;4.63;;;3.63;;
1128;SDS011;553;51.038;7.216;2023-05-07T15:24:03;3.43;;;2.93;;
1128;SDS011;553;51.038;7.216;2023-05-07T15:26:29;3.37;;;2.60;;
1128;SDS011;553;51.038;7.216;2023-05-07T15:28:56;5.60;;;3.60;;
1128;SDS011;553;51.038;7.216;2023-05-07T15:31:26;8.67;;;4.30;;
1128;SDS011;553;51.038;7.216;2023-05-07T15:33:52;5.13;;;3.73;;
1128;SDS011;553;51.038;7.216;2023-05-07T15:36:20;3.80;;;3.40;;
1128;SDS011;553;51.038;7.216;2023-05-07T15:38:47;6.53;;;3.97;;
1128;SDS011;553;51.038;7.216;2023-05-07T15:41:13;5.30;;;4.30;;
1128;SDS011;553;51.038;7.216;2023-05-07T15:43:47;5.57;;;4.47;;
1128;SDS011;553;51.038;7.216;2023-05-07T15:46:17;5.43;;;4.43;;